createdAt,value
2022-11-24T00:00:00.186Z,3.3
2022-11-24T00:05:00.237Z,2.5
2022-11-24T00:10:00.208Z,3.1
2022-11-24T00:15:00.220Z,3.1
2022-11-24T00:20:00.166Z,3.4
2022-11-24T00:25:00.369Z,3.1
2022-11-24T00:30:00.191Z,3.0
2022-11-24T00:35:00.224Z,2.8
2022-11-24T00:40:00.217Z,2.7
2022-11-24T00:45:00.771Z,2.7
2022-11-24T00:50:00.215Z,3.0
2022-11-24T00:55:00.222Z,2.9
2022-11-24T01:00:00.178Z,3.0
2022-11-24T01:05:00.196Z,3.7
2022-11-24T01:10:00.233Z,2.7
2022-11-24T01:15:00.187Z,2.7
2022-11-24T01:20:00.223Z,3.2
2022-11-24T01:25:00.189Z,2.9
2022-11-24T01:30:00.198Z,2.8
2022-11-24T01:35:00.208Z,2.7
2022-11-24T01:40:00.185Z,2.9
2022-11-24T01:45:00.209Z,3.5
2022-11-24T01:50:00.190Z,2.6
2022-11-24T01:55:00.217Z,2.8
2022-11-24T02:00:00.159Z,2.4
2022-11-24T02:05:00.201Z,3.7
2022-11-24T02:10:00.200Z,3.0
2022-11-24T02:15:00.229Z,3.2
2022-11-24T02:20:00.168Z,3.7
2022-11-24T02:25:00.223Z,3.6
2022-11-24T02:30:00.178Z,3.0
2022-11-24T02:35:00.222Z,2.8
2022-11-24T02:40:00.235Z,2.9
2022-11-24T02:45:00.230Z,3.5
2022-11-24T02:50:00.183Z,2.4
2022-11-24T02:55:00.241Z,2.7
2022-11-24T03:00:00.232Z,2.6
2022-11-24T03:05:00.217Z,2.2
2022-11-24T03:10:00.210Z,2.3
2022-11-24T03:15:00.223Z,2.6
2022-11-24T03:20:04.648Z,2.3
2022-11-24T03:25:00.195Z,2.3
2022-11-24T03:30:00.259Z,2.6
2022-11-24T03:35:00.211Z,2.5
2022-11-24T03:40:00.215Z,2.7
2022-11-24T03:45:16.762Z,2.3
2022-11-24T03:50:00.210Z,2.8
2022-11-24T03:55:00.189Z,2.4
2022-11-24T04:00:00.207Z,2.2
2022-11-24T04:05:00.225Z,2.7
2022-11-24T04:10:00.188Z,2.8
2022-11-24T04:15:00.235Z,3.0
2022-11-24T04:20:00.216Z,2.0
2022-11-24T04:25:00.216Z,2.4
2022-11-24T04:30:00.214Z,4.2
2022-11-24T04:35:00.311Z,3.0
2022-11-24T04:40:00.208Z,2.5
2022-11-24T04:45:00.220Z,2.1
2022-11-24T04:50:00.204Z,2.5
2022-11-24T04:55:00.231Z,2.9
2022-11-24T05:00:00.220Z,2.8
2022-11-24T05:05:00.193Z,2.7
2022-11-24T05:10:00.200Z,2.4
2022-11-24T05:15:00.172Z,2.4
2022-11-24T05:20:00.187Z,2.6
2022-11-24T05:25:00.198Z,2.4
2022-11-24T05:30:00.197Z,2.9
2022-11-24T05:35:00.192Z,2.9
2022-11-24T05:40:00.204Z,2.6
2022-11-24T05:45:00.200Z,2.9
2022-11-24T05:50:00.197Z,2.6
2022-11-24T05:55:00.197Z,2.9
2022-11-24T06:00:00.566Z,3.4
2022-11-24T06:05:00.151Z,3.1
2022-11-24T06:10:00.209Z,3.1
2022-11-24T06:15:00.171Z,3.0
2022-11-24T06:20:00.214Z,2.8
2022-11-24T06:25:00.190Z,3.0
2022-11-24T06:30:00.208Z,2.6
2022-11-24T06:35:00.169Z,3.4
2022-11-24T06:40:00.198Z,3.2
2022-11-24T06:45:00.460Z,3.1
2022-11-24T06:50:00.163Z,3.2
2022-11-24T06:55:00.176Z,3.0
2022-11-24T07:00:00.165Z,4.7
2022-11-24T07:05:00.203Z,3.2
2022-11-24T07:10:00.463Z,4.9
2022-11-24T07:15:00.155Z,4.0
2022-11-24T07:20:00.197Z,3.7
2022-11-24T07:25:00.230Z,3.0
2022-11-24T07:30:00.170Z,3.5
2022-11-24T07:35:00.190Z,3.1
2022-11-24T07:40:00.213Z,3.0
2022-11-24T07:45:00.212Z,3.6
2022-11-24T07:50:00.216Z,4.1
2022-11-24T07:55:00.411Z,4.1
2022-11-24T08:00:00.249Z,3.6
2022-11-24T08:05:00.170Z,2.8
2022-11-24T08:10:00.201Z,3.1
2022-11-24T08:15:00.232Z,3.8
2022-11-24T08:20:00.376Z,3.9
2022-11-24T08:25:00.163Z,3.4
2022-11-24T08:30:00.235Z,3.8
2022-11-24T08:35:13.470Z,4.3
2022-11-24T08:40:00.159Z,3.7
2022-11-24T08:45:04.979Z,4.5
2022-11-24T08:50:00.181Z,3.5
2022-11-24T08:55:00.193Z,4.3
2022-11-24T09:00:00.187Z,4.6
2022-11-24T09:05:00.216Z,4.2
2022-11-24T09:10:00.171Z,3.7
2022-11-24T09:15:00.213Z,4.9
2022-11-24T09:20:00.159Z,4.6
2022-11-24T09:25:00.233Z,4.2
2022-11-24T09:30:00.200Z,4.6
2022-11-24T09:35:00.194Z,4.4
2022-11-24T09:40:00.176Z,3.9
2022-11-24T09:45:00.389Z,6.2
2022-11-24T09:50:00.192Z,4.1
2022-11-24T09:55:00.195Z,4.7
2022-11-24T10:00:00.246Z,5.1
2022-11-24T10:05:00.280Z,4.3
2022-11-24T10:10:00.232Z,4.4
2022-11-24T10:15:00.163Z,4.5
2022-11-24T10:20:00.348Z,4.8
2022-11-24T10:25:00.427Z,4.4
2022-11-24T10:30:00.162Z,3.7
2022-11-24T10:35:00.200Z,3.8
2022-11-24T10:40:00.643Z,3.3
2022-11-24T10:45:00.373Z,3.6
2022-11-24T10:50:00.197Z,3.9
2022-11-24T10:55:02.732Z,4.4
2022-11-24T11:00:00.732Z,4.6
2022-11-24T11:05:00.159Z,3.6
2022-11-24T11:10:00.262Z,3.7
2022-11-24T11:15:00.207Z,3.6
2022-11-24T11:20:02.223Z,3.8
2022-11-24T11:25:00.163Z,3.5
2022-11-24T11:35:00.144Z,3.7
2022-11-24T11:40:00.208Z,5.2
2022-11-24T11:45:00.188Z,4.0
2022-11-24T11:50:00.154Z,3.2
2022-11-24T11:55:00.211Z,3.2
2022-11-24T12:00:00.609Z,3.4
2022-11-24T12:05:00.197Z,4.5
2022-11-24T12:10:00.239Z,2.6
2022-11-24T12:15:01.088Z,3.8
2022-11-24T12:20:00.195Z,3.7
2022-11-24T12:25:00.305Z,3.4
2022-11-24T12:30:00.217Z,3.7
2022-11-24T12:35:00.176Z,4.3
2022-11-24T12:40:00.223Z,2.9
2022-11-24T12:45:00.224Z,3.0
2022-11-24T12:50:00.221Z,4.7
2022-11-24T12:55:00.174Z,3.8
2022-11-24T13:00:01.027Z,3.7
2022-11-24T13:05:00.153Z,4.0
2022-11-24T13:10:00.242Z,4.4
2022-11-24T13:15:00.195Z,4.3
2022-11-24T13:20:00.194Z,4.0
2022-11-24T13:25:00.191Z,3.8
2022-11-24T13:30:00.612Z,3.3
2022-11-24T13:35:00.152Z,3.3
2022-11-24T13:40:00.185Z,4.0
2022-11-24T13:45:00.222Z,3.6
2022-11-24T13:50:00.198Z,3.4
2022-11-24T13:55:00.157Z,3.8
2022-11-24T14:00:00.208Z,4.5
2022-11-24T14:05:00.145Z,3.8
2022-11-24T14:10:00.187Z,2.8
2022-11-24T14:15:00.446Z,3.8
2022-11-24T14:20:00.201Z,3.2
2022-11-24T14:25:00.166Z,2.9
2022-11-24T14:30:00.234Z,3.6
2022-11-24T14:35:00.231Z,3.0
2022-11-24T14:40:00.210Z,3.0
2022-11-24T14:45:00.222Z,3.4
2022-11-24T14:50:00.260Z,3.4
2022-11-24T14:55:12.253Z,3.0
2022-11-24T15:00:00.196Z,3.9
2022-11-24T15:05:03.331Z,3.5
2022-11-24T15:10:00.619Z,3.6
2022-11-24T15:15:00.204Z,3.1
2022-11-24T15:20:00.297Z,3.5
2022-11-24T15:25:00.195Z,2.8
2022-11-24T15:30:00.194Z,4.2
2022-11-24T15:35:00.150Z,2.4
2022-11-24T15:40:00.196Z,3.8
2022-11-24T15:45:00.284Z,3.0
2022-11-24T15:50:00.349Z,3.8
2022-11-24T15:55:00.163Z,2.9
2022-11-24T16:00:00.217Z,3.0
2022-11-24T16:05:00.201Z,3.2
2022-11-24T16:10:00.161Z,4.5
2022-11-24T16:15:00.203Z,2.9
2022-11-24T16:20:00.960Z,3.2
2022-11-24T16:25:00.203Z,3.5
2022-11-24T16:30:00.185Z,3.8
2022-11-24T16:35:00.185Z,2.5
2022-11-24T16:40:00.338Z,3.5
2022-11-24T16:45:00.405Z,3.4
2022-11-24T16:50:00.220Z,3.7
2022-11-24T16:55:00.201Z,3.9
2022-11-24T17:00:00.218Z,4.7
2022-11-24T17:05:00.198Z,4.0
2022-11-24T17:10:00.373Z,4.6
2022-11-24T17:15:30.522Z,3.9
2022-11-24T17:20:00.189Z,4.4
2022-11-24T17:25:00.154Z,3.7
2022-11-24T17:30:00.206Z,4.0
2022-11-24T17:35:00.200Z,6.2
2022-11-24T17:40:26.810Z,3.8
2022-11-24T17:45:00.199Z,5.2
2022-11-24T17:50:00.215Z,5.7
2022-11-24T17:55:00.495Z,5.2
2022-11-24T18:00:00.164Z,4.9
2022-11-24T18:05:00.203Z,4.8
2022-11-24T18:10:00.176Z,4.9
2022-11-24T18:15:00.371Z,3.7
2022-11-24T18:20:00.205Z,3.1
2022-11-24T18:25:00.214Z,2.9
2022-11-24T18:30:00.256Z,3.4
2022-11-24T18:35:00.395Z,3.1
2022-11-24T18:40:00.173Z,3.6
2022-11-24T18:45:00.187Z,3.5
2022-11-24T18:50:00.244Z,3.8
2022-11-24T18:55:00.177Z,6.3
2022-11-24T19:00:00.184Z,4.2
2022-11-24T19:05:00.202Z,3.6
2022-11-24T19:10:00.179Z,3.9
2022-11-24T19:15:00.796Z,3.6
2022-11-24T19:20:00.188Z,3.9
2022-11-24T19:25:00.172Z,3.4
2022-11-24T19:30:00.155Z,3.6
2022-11-24T19:35:00.231Z,4.3
2022-11-24T19:40:00.172Z,4.1
2022-11-24T19:45:00.242Z,5.9
2022-11-24T19:50:00.431Z,6.2
2022-11-24T19:55:00.176Z,6.6
2022-11-24T20:00:00.250Z,7.2
2022-11-24T20:05:00.186Z,5.3
2022-11-24T20:10:06.034Z,4.4
2022-11-24T20:15:00.344Z,5.2
2022-11-24T20:20:00.173Z,4.4
2022-11-24T20:25:00.527Z,4.7
2022-11-24T20:30:00.167Z,4.9
2022-11-24T20:35:00.216Z,4.7
2022-11-24T20:40:00.203Z,4.3
2022-11-24T20:45:00.182Z,4.9
2022-11-24T20:50:00.152Z,4.3
2022-11-24T20:55:00.195Z,4.8
2022-11-24T21:00:00.208Z,5.5
2022-11-24T21:05:00.184Z,5.4
2022-11-24T21:10:00.189Z,5.0
2022-11-24T21:15:00.167Z,5.6
2022-11-24T21:20:01.245Z,7.1
2022-11-24T21:25:00.214Z,9.1
2022-11-24T21:30:00.178Z,6.9
2022-11-24T21:35:00.166Z,7.2
2022-11-24T21:40:00.202Z,6.7
2022-11-24T21:45:00.185Z,6.6
2022-11-24T21:50:00.149Z,7.2
2022-11-24T21:55:00.208Z,7.6
2022-11-24T22:00:00.145Z,7.6
2022-11-24T22:05:00.188Z,7.7
2022-11-24T22:10:00.188Z,8.9
2022-11-24T22:15:00.158Z,9.4
2022-11-24T22:20:00.226Z,8.5
2022-11-24T22:25:00.171Z,8.5
2022-11-24T22:30:00.407Z,8.5
2022-11-24T22:35:00.196Z,8.0
2022-11-24T22:40:00.172Z,9.1
2022-11-24T22:45:00.347Z,8.9
2022-11-24T22:50:00.152Z,8.0
2022-11-24T22:55:00.202Z,8.2
2022-11-24T23:00:00.498Z,8.6
2022-11-24T23:05:00.172Z,10.1
2022-11-24T23:10:00.179Z,9.5
2022-11-24T23:15:00.166Z,8.8
2022-11-24T23:20:00.204Z,8.8
2022-11-24T23:25:00.158Z,9.2
2022-11-24T23:30:00.209Z,8.9
2022-11-24T23:35:00.153Z,8.8
2022-11-24T23:40:00.189Z,9.1
2022-11-24T23:45:00.196Z,9.7
2022-11-24T23:50:00.180Z,8.3
2022-11-24T23:55:00.214Z,8.2
